Time;durP1;ratioP1;P1;durP2;ratioP2;P2;SDS_P1;SDS_P2;PMS_P1;PMS_P2;Temp;Humidity;BMP_temperature;BMP_pressure;BME280_temperature;BME280_humidity;BME280_pressure;Samples;Min_cycle;Max_cycle;Signal;HPM_P1;HPM_P2
2021/05/04 00:00:07;;;;;;;1999.90;999.90;;;;;;;11.67;76.37;95948.59;5071576;28;20196;-60
2021/05/04 00:02:35;;;;;;;1999.90;999.90;;;;;;;11.70;76.62;95958.44;5071718;28;20219;-61
2021/05/04 00:05:02;;;;;;;1999.90;999.90;;;;;;;11.73;75.57;95954.50;5071599;28;20794;-62
2021/05/04 00:07:29;;;;;;;1999.90;999.90;;;;;;;11.69;76.61;95951.69;5071690;28;20200;-63
2021/05/04 00:09:56;;;;;;;1999.90;999.90;;;;;;;11.58;76.88;95947.72;5071518;28;20328;-61
2021/05/04 00:12:23;;;;;;;1999.90;999.90;;;;;;;11.60;77.13;95943.00;5071629;28;20254;-63
2021/05/04 00:14:51;;;;;;;1999.90;999.90;;;;;;;11.68;77.12;95942.34;5071010;28;20227;-62
2021/05/04 00:17:18;;;;;;;1999.90;999.90;;;;;;;11.76;76.53;95946.88;5071332;28;20228;-62
2021/05/04 00:19:46;;;;;;;1999.90;999.90;;;;;;;11.69;77.13;95941.28;5071502;28;20197;-62
2021/05/04 00:22:13;;;;;;;1999.90;999.90;;;;;;;11.70;77.23;95942.81;5071230;28;20289;-61
2021/05/04 00:24:39;;;;;;;1999.90;999.90;;;;;;;11.76;77.52;95946.88;5071425;28;20232;-62
2021/05/04 00:27:06;;;;;;;1999.90;999.90;;;;;;;11.85;76.19;95953.00;5071453;28;20254;-62
2021/05/04 00:29:33;;;;;;;1999.90;999.90;;;;;;;11.72;78.18;95958.91;5071342;28;20199;-62
2021/05/04 00:32:00;;;;;;;1999.90;999.90;;;;;;;11.75;78.94;95960.22;5071405;28;20196;-61
2021/05/04 00:34:28;;;;;;;1999.90;999.90;;;;;;;11.64;79.27;95959.59;5071213;28;20224;-63
2021/05/04 00:36:55;;;;;;;1999.90;999.90;;;;;;;11.40;80.27;95949.34;5070894;28;20338;-62
2021/05/04 00:39:26;;;;;;;1999.90;999.90;;;;;;;11.23;81.13;95949.09;5070899;28;20192;-62
2021/05/04 00:41:53;;;;;;;1999.90;999.90;;;;;;;11.25;81.18;95954.81;5071150;28;20210;-63
2021/05/04 00:44:19;;;;;;;1999.90;999.90;;;;;;;11.08;80.92;95952.72;5070857;28;20269;-62
2021/05/04 00:46:47;;;;;;;1999.90;999.90;;;;;;;11.11;81.21;95956.56;5070989;28;20211;-62
2021/05/04 00:49:14;;;;;;;1999.90;999.90;;;;;;;11.15;80.54;95947.94;5070710;28;20192;-62
2021/05/04 00:51:40;;;;;;;1999.90;999.90;;;;;;;11.08;80.48;95951.94;5070701;28;20208;-62
2021/05/04 00:54:09;;;;;;;1999.90;999.90;;;;;;;11.09;80.74;95954.28;5070535;28;20199;-62
2021/05/04 00:56:37;;;;;;;1999.90;999.90;;;;;;;10.96;81.05;95954.25;5070852;28;20235;-61
2021/05/04 00:59:06;;;;;;;1999.90;999.90;;;;;;;11.00;81.40;95958.59;5070623;28;20219;-62
2021/05/04 01:01:33;;;;;;;1999.90;999.90;;;;;;;11.06;81.11;95951.44;5070712;28;20254;-62
2021/05/04 01:04:01;;;;;;;1999.90;999.90;;;;;;;11.09;80.00;95954.28;5070414;28;20232;-62
2021/05/04 01:06:28;;;;;;;1999.90;999.90;;;;;;;11.14;79.90;95943.78;5070705;28;20192;-60
2021/05/04 01:08:55;;;;;;;1999.90;999.90;;;;;;;11.20;79.68;95945.25;5070845;28;20200;-60
2021/05/04 01:11:23;;;;;;;1999.90;999.90;;;;;;;11.29;79.94;95947.19;5070560;28;20193;-60
2021/05/04 01:13:51;;;;;;;1999.90;999.90;;;;;;;11.05;80.88;95944.72;5070182;28;20217;-62
2021/05/04 01:16:20;;;;;;;1999.90;999.90;;;;;;;11.05;81.73;95949.94;5070259;28;20236;-61
2021/05/04 01:18:49;;;;;;;1999.90;999.90;;;;;;;11.22;81.55;95950.16;5070039;28;20228;-61
2021/05/04 01:21:18;;;;;;;1999.90;999.90;;;;;;;11.17;81.88;95945.03;5070730;28;20691;-64
2021/05/04 01:23:46;;;;;;;1999.90;999.90;;;;;;;11.27;81.04;95944.09;5070202;28;20219;-61
2021/05/04 01:26:14;;;;;;;1999.90;999.90;;;;;;;11.42;80.63;95947.22;5070626;28;20679;-62
2021/05/04 01:28:41;;;;;;;1999.90;999.90;;;;;;;11.42;79.13;95943.84;5070662;28;20240;-62
2021/05/04 01:31:08;;;;;;;1999.90;999.90;;;;;;;11.45;78.10;95941.44;5070004;28;20224;-60
2021/05/04 01:33:35;;;;;;;1999.90;999.90;;;;;;;11.53;78.56;95948.59;5069985;28;20283;-61
2021/05/04 01:36:02;;;;;;;1999.90;999.90;;;;;;;11.58;78.51;95950.31;5070144;28;20227;-60
2021/05/04 01:38:29;;;;;;;1999.90;999.90;;;;;;;11.66;77.96;95954.84;5070309;28;20296;-60
2021/05/04 01:40:56;;;;;;;1999.90;999.90;;;;;;;11.72;77.26;95945.91;5070035;28;20203;-61
2021/05/04 01:43:23;;;;;;;1999.90;999.90;;;;;;;11.58;78.08;95955.53;5070068;28;20228;-61
2021/05/04 01:45:50;;;;;;;1999.90;999.90;;;;;;;11.73;77.55;95957.88;5069948;28;20278;-61
2021/05/04 01:48:16;;;;;;;1999.90;999.90;;;;;;;11.89;75.21;95961.00;5069929;28;20582;-62
2021/05/04 01:50:43;;;;;;;1999.90;999.90;;;;;;;11.91;76.46;95964.06;5069962;28;20193;-61
2021/05/04 01:53:10;;;;;;;1999.90;999.90;;;;;;;11.85;75.08;95957.41;5070307;28;20195;-61
2021/05/04 01:55:38;;;;;;;1999.90;999.90;;;;;;;11.73;75.56;95963.09;5069799;28;20196;-61
2021/05/04 01:58:05;;;;;;;1999.90;999.90;;;;;;;11.75;75.27;95965.41;5070006;28;20200;-60
2021/05/04 02:00:32;;;;;;;1999.90;999.90;;;;;;;11.75;75.53;95958.38;5070096;28;20197;-62
2021/05/04 02:02:58;;;;;;;1999.90;999.90;;;;;;;11.79;75.46;95955.97;5070406;28;20598;-61
2021/05/04 02:05:25;;;;;;;1999.90;999.90;;;;;;;11.76;74.41;95962.50;5069781;28;20228;-62
2021/05/04 02:07:52;;;;;;;1999.90;999.90;;;;;;;11.92;72.09;95966.38;5073021;28;20218;-60
2021/05/04 02:10:20;;;;;;;1999.90;999.90;;;;;;;11.88;71.81;95969.84;5073960;28;20342;-61
2021/05/04 02:12:47;;;;;;;1999.90;999.90;;;;;;;11.83;71.73;95969.94;5073761;28;20234;-63
2021/05/04 02:15:16;;;;;;;1999.90;999.90;;;;;;;11.85;71.52;95968.63;5073775;28;20220;-61
2021/05/04 02:17:43;;;;;;;1999.90;999.90;;;;;;;11.90;71.85;95972.94;5073612;28;20231;-61
2021/05/04 02:20:12;;;;;;;1999.90;999.90;;;;;;;11.96;73.24;95972.56;5073667;28;20287;-61
2021/05/04 02:22:39;;;;;;;1999.90;999.90;;;;;;;11.93;73.62;95972.38;5073753;28;20235;-61
2021/05/04 02:25:08;;;;;;;1999.90;999.90;;;;;;;11.80;74.14;95973.91;5073539;28;20224;-61
2021/05/04 02:27:35;;;;;;;1999.90;999.90;;;;;;;11.80;73.85;95967.94;5073498;28;20228;-61
2021/05/04 02:30:04;;;;;;;1999.90;999.90;;;;;;;11.80;74.26;95973.91;5073596;28;20884;-61
2021/05/04 02:32:34;;;;;;;1999.90;999.90;;;;;;;11.85;74.30;95960.81;5073452;28;20253;-60
2021/05/04 02:35:01;;;;;;;1999.90;999.90;;;;;;;11.81;75.80;95959.03;5073424;28;20351;-61
2021/05/04 02:37:28;;;;;;;1999.90;999.90;;;;;;;11.78;77.44;95955.19;5073983;28;20650;-61
2021/05/04 02:39:55;;;;;;;1999.90;999.90;;;;;;;11.77;77.61;95961.47;5073130;28;20215;-61
2021/05/04 02:42:21;;;;;;;1999.90;999.90;;;;;;;11.85;77.37;95963.41;5073117;28;20242;-60
2021/05/04 02:44:48;;;;;;;1999.90;999.90;;;;;;;11.90;75.83;95968.53;5073106;28;20565;-61
2021/05/04 02:47:16;;;;;;;1999.90;999.90;;;;;;;11.95;74.17;95971.03;5073413;28;20216;-63
2021/05/04 02:49:43;;;;;;;1999.90;999.90;;;;;;;11.91;74.53;95969.25;5073108;28;20196;-60
2021/05/04 02:52:09;;;;;;;1999.90;999.90;;;;;;;12.00;73.92;95975.38;5072960;28;20192;-60
2021/05/04 02:54:36;;;;;;;1999.90;999.90;;;;;;;12.06;72.35;95977.56;5073429;28;20663;-61
2021/05/04 02:57:03;;;;;;;1999.90;999.90;;;;;;;12.05;71.85;95981.22;5073136;28;20219;-61
2021/05/04 02:59:30;;;;;;;1999.90;999.90;;;;;;;11.99;72.50;95982.41;5072990;28;20196;-62
2021/05/04 03:01:57;;;;;;;1999.90;999.90;;;;;;;12.06;71.86;95982.00;5073039;28;20262;-61
2021/05/04 03:04:24;;;;;;;1999.90;999.90;;;;;;;11.91;71.77;95975.25;5072853;28;20361;-62
2021/05/04 03:06:51;;;;;;;1999.90;999.90;;;;;;;11.96;71.25;95972.56;5073211;28;20208;-63
2021/05/04 03:09:18;;;;;;;1999.90;999.90;;;;;;;11.97;70.24;95979.31;5072685;28;20207;-61
2021/05/04 03:11:45;;;;;;;1999.90;999.90;;;;;;;11.99;70.46;95977.19;5072680;28;20663;-63
2021/05/04 03:14:12;;;;;;;1999.90;999.90;;;;;;;12.01;68.98;95980.25;5072690;28;20311;-62
2021/05/04 03:16:39;;;;;;;1999.90;999.90;;;;;;;11.98;69.10;95974.88;5072220;28;20253;-61
2021/05/04 03:19:06;;;;;;;1999.90;999.90;;;;;;;12.08;68.44;95988.47;5072551;28;20200;-60
2021/05/04 03:21:35;;;;;;;1999.90;999.90;;;;;;;12.05;68.59;95989.03;5072612;28;20189;-61
2021/05/04 03:24:01;;;;;;;1999.90;999.90;;;;;;;12.07;68.75;95989.53;5072396;28;20235;-60
2021/05/04 03:26:28;;;;;;;1999.90;999.90;;;;;;;12.03;69.13;95993.78;5072479;28;20715;-61
2021/05/04 03:28:56;;;;;;;1999.90;999.90;;;;;;;12.05;69.62;95983.84;5072552;28;20200;-61
2021/05/04 03:31:22;;;;;;;1999.90;999.90;;;;;;;12.06;69.10;95985.38;5072214;28;20188;-61
2021/05/04 03:33:49;;;;;;;1999.90;999.90;;;;;;;12.06;68.43;95995.03;5072617;28;20189;-62
2021/05/04 03:36:16;;;;;;;1999.90;999.90;;;;;;;12.10;67.46;95992.63;5072672;28;20204;-62
2021/05/04 03:38:44;;;;;;;1999.90;999.90;;;;;;;12.13;66.72;95997.25;5072150;28;20193;-62
2021/05/04 03:41:10;;;;;;;1999.90;999.90;;;;;;;12.15;65.81;96000.34;5072118;28;20632;-61
2021/05/04 03:43:37;;;;;;;1999.90;999.90;;;;;;;12.12;64.44;95993.09;5071994;28;20192;-61
2021/05/04 03:46:04;;;;;;;1999.90;999.90;;;;;;;12.04;64.61;96003.16;5072288;28;20246;-63
2021/05/04 03:48:31;;;;;;;1999.90;999.90;;;;;;;12.07;64.67;95994.75;5071968;28;20208;-61
2021/05/04 03:50:58;;;;;;;1999.90;999.90;;;;;;;12.18;63.95;95997.94;5072208;28;20580;-62
2021/05/04 03:53:25;;;;;;;1999.90;999.90;;;;;;;12.13;63.79;96005.84;5072064;28;20196;-61
2021/05/04 03:55:53;;;;;;;1999.90;999.90;;;;;;;12.18;64.36;96003.13;5072013;28;20306;-61
2021/05/04 03:58:19;;;;;;;1999.90;999.90;;;;;;;12.17;65.07;96008.63;5071952;28;20239;-61
2021/05/04 04:00:46;;;;;;;1999.90;999.90;;;;;;;12.14;64.67;96010.00;5071791;28;20192;-60
2021/05/04 04:03:13;;;;;;;1999.90;999.90;;;;;;;12.08;65.30;96013.75;5072217;28;20548;-61
2021/05/04 04:05:40;;;;;;;1999.90;999.90;;;;;;;11.99;66.42;96011.06;5071931;28;20790;-61
2021/05/04 04:08:08;;;;;;;1999.90;999.90;;;;;;;12.02;66.75;96013.06;5072092;28;20197;-60
2021/05/04 04:10:39;;;;;;;1999.90;999.90;;;;;;;12.02;66.95;96014.91;5071705;28;20193;-61
2021/05/04 04:13:07;;;;;;;1999.90;999.90;;;;;;;11.98;67.35;96014.72;5071559;28;20189;-61
2021/05/04 04:15:34;;;;;;;1999.90;999.90;;;;;;;11.96;67.77;96018.66;5071264;28;20247;-61
2021/05/04 04:18:00;;;;;;;1999.90;999.90;;;;;;;11.92;68.24;96021.06;5071556;28;20261;-61
2021/05/04 04:20:27;;;;;;;1999.90;999.90;;;;;;;12.05;68.75;96015.09;5071539;28;20257;-61
2021/05/04 04:22:54;;;;;;;1999.90;999.90;;;;;;;12.38;68.14;96015.00;5071642;28;20204;-61
2021/05/04 04:25:21;;;;;;;1999.90;999.90;;;;;;;12.78;66.29;96021.22;5071148;28;20232;-62
2021/05/04 04:27:48;;;;;;;1999.90;999.90;;;;;;;13.21;64.76;96013.75;5071548;28;20269;-63
2021/05/04 04:30:16;;;;;;;1999.90;999.90;;;;;;;13.32;64.91;96022.88;5070767;28;20196;-61
2021/05/04 04:32:44;;;;;;;1999.90;999.90;;;;;;;13.64;64.05;96017.41;5071212;28;20204;-61
2021/05/04 04:35:11;;;;;;;1999.90;999.90;;;;;;;14.01;62.82;96023.25;5071001;28;20287;-61
2021/05/04 04:37:38;;;;;;;1999.90;999.90;;;;;;;14.12;61.47;96019.31;5071267;28;20606;-62
2021/05/04 04:40:07;;;;;;;1999.90;999.90;;;;;;;13.98;61.16;96019.41;5070411;28;20438;-61
2021/05/04 04:42:34;;;;;;;1999.90;999.90;;;;;;;13.93;62.07;96011.72;5070690;28;20200;-65
2021/05/04 04:45:02;;;;;;;1999.90;999.90;;;;;;;14.05;60.33;96019.75;5070757;28;20232;-61
2021/05/04 04:47:29;;;;;;;1999.90;999.90;;;;;;;13.97;59.63;96020.47;5070688;28;20188;-61
2021/05/04 04:49:56;;;;;;;1999.90;999.90;;;;;;;13.99;59.60;96026.19;5070699;28;20195;-62
2021/05/04 04:52:23;;;;;;;1999.90;999.90;;;;;;;14.20;59.68;96021.19;5070772;28;20196;-61
2021/05/04 04:54:50;;;;;;;1999.90;999.90;;;;;;;14.29;57.23;96021.22;5070731;28;20201;-60
2021/05/04 04:57:17;;;;;;;1999.90;999.90;;;;;;;14.28;56.76;96022.28;5070344;28;20545;-63
2021/05/04 04:59:44;;;;;;;1999.90;999.90;;;;;;;14.37;55.50;96021.28;5070587;28;20744;-61
2021/05/04 05:02:11;;;;;;;1999.90;999.90;;;;;;;14.39;55.89;96018.34;5070571;28;20218;-61
2021/05/04 05:04:39;;;;;;;1999.90;999.90;;;;;;;14.24;54.74;96016.91;5070491;28;20777;-62
2021/05/04 05:07:08;;;;;;;1999.90;999.90;;;;;;;14.20;55.22;96015.94;5070210;28;20193;-62
2021/05/04 05:09:36;;;;;;;1999.90;999.90;;;;;;;14.25;54.88;96021.03;5070554;28;20691;-63
2021/05/04 05:12:05;;;;;;;1999.90;999.90;;;;;;;14.37;54.86;96026.50;5070400;28;20583;-63
2021/05/04 05:14:34;;;;;;;1999.90;999.90;;;;;;;14.47;54.82;96026.22;5070148;28;20267;-63
2021/05/04 05:17:01;;;;;;;1999.90;999.90;;;;;;;14.65;53.96;96027.78;5070124;28;20243;-61
2021/05/04 05:19:28;;;;;;;1999.90;999.90;;;;;;;14.69;53.50;96025.34;5070783;28;20206;-61
2021/05/04 05:21:56;;;;;;;1999.90;999.90;;;;;;;14.69;52.81;96027.19;5070297;28;20287;-62
2021/05/04 05:24:23;;;;;;;1999.90;999.90;;;;;;;14.53;53.32;96019.78;5070001;28;20652;-62
2021/05/04 05:26:51;;;;;;;1999.90;999.90;;;;;;;14.62;52.76;96017.16;5070446;28;20249;-62
2021/05/04 05:29:18;;;;;;;1999.90;999.90;;;;;;;14.84;51.88;96024.91;5070414;28;20516;-62
2021/05/04 05:31:44;;;;;;;1999.90;999.90;;;;;;;14.85;53.28;96023.03;5070182;28;20581;-61
2021/05/04 05:34:11;;;;;;;1999.90;999.90;;;;;;;15.14;52.30;96023.22;5070299;28;20276;-62
2021/05/04 05:36:38;;;;;;;1999.90;999.90;;;;;;;15.15;50.50;96024.72;5070179;28;20664;-62
2021/05/04 05:39:06;;;;;;;1999.90;999.90;;;;;;;15.12;50.83;96025.38;5070045;28;20279;-62
2021/05/04 05:41:33;;;;;;;1999.90;999.90;;;;;;;15.12;50.94;96017.50;5069266;28;20192;-63
2021/05/04 05:44:00;;;;;;;1999.90;999.90;;;;;;;15.14;51.14;96012.75;5069779;28;20228;-62
2021/05/04 05:46:30;;;;;;;1999.90;999.90;;;;;;;15.06;51.26;96010.88;5069920;28;20235;-62
2021/05/04 05:49:00;;;;;;;1999.90;999.90;;;;;;;15.16;51.03;96010.56;5070374;28;20203;-63
2021/05/04 05:51:27;;;;;;;1999.90;999.90;;;;;;;15.24;51.18;95998.56;5070157;28;20196;-61
2021/05/04 05:53:54;;;;;;;1999.90;999.90;;;;;;;15.31;51.35;95993.63;5070213;28;20220;-63
2021/05/04 05:56:22;;;;;;;1999.90;999.90;;;;;;;15.54;50.81;95994.22;5069640;28;20204;-62
2021/05/04 05:58:49;;;;;;;1999.90;999.90;;;;;;;15.65;50.87;95987.56;5069818;28;20195;-61
2021/05/04 06:01:16;;;;;;;1999.90;999.90;;;;;;;15.86;51.20;95989.19;5069826;28;20192;-62
2021/05/04 06:03:42;;;;;;;1999.90;999.90;;;;;;;15.92;50.60;95979.31;5069825;28;20733;-64
2021/05/04 06:06:09;;;;;;;1999.90;999.90;;;;;;;16.08;49.87;95982.94;5069714;28;20716;-63
2021/05/04 06:08:37;;;;;;;1999.90;999.90;;;;;;;16.06;50.05;95977.22;5070021;28;20201;-63
2021/05/04 06:11:04;;;;;;;1999.90;999.90;;;;;;;16.22;49.53;95969.59;5070054;28;20280;-62
2021/05/04 06:13:32;;;;;;;1999.90;999.90;;;;;;;16.35;48.58;95961.50;5069941;28;20235;-62
2021/05/04 06:15:58;;;;;;;1999.90;999.90;;;;;;;16.55;47.77;95961.84;5069486;28;20702;-63
2021/05/04 06:18:25;;;;;;;1999.90;999.90;;;;;;;16.82;46.28;95961.38;5069389;28;20698;-63
2021/05/04 06:20:52;;;;;;;1999.90;999.90;;;;;;;16.99;46.30;95953.31;5069906;28;20571;-64
2021/05/04 06:23:19;;;;;;;1999.90;999.90;;;;;;;16.94;46.22;95950.13;5069806;28;20223;-64
2021/05/04 06:25:46;;;;;;;1999.90;999.90;;;;;;;16.83;46.50;95960.28;5069378;28;20789;-62
2021/05/04 06:28:12;;;;;;;1999.90;999.90;;;;;;;16.80;47.42;95953.03;5069730;28;20659;-63
2021/05/04 06:30:40;;;;;;;1999.90;999.90;;;;;;;16.92;46.78;95942.59;5069743;28;20236;-62
2021/05/04 06:33:09;;;;;;;1999.90;999.90;;;;;;;16.64;46.18;95944.19;5069581;28;20287;-61
2021/05/04 06:35:38;;;;;;;1999.90;999.90;;;;;;;16.47;45.92;95941.69;5069674;28;20203;-61
2021/05/04 06:38:06;;;;;;;1999.90;999.90;;;;;;;16.39;47.47;95939.88;5069729;28;20287;-63
2021/05/04 06:40:33;;;;;;;1999.90;999.90;;;;;;;16.42;47.50;95940.00;5069462;28;20637;-61
2021/05/04 06:43:01;;;;;;;1999.90;999.90;;;;;;;16.49;47.09;95931.63;5069413;28;20203;-61
2021/05/04 06:45:28;;;;;;;1999.90;999.90;;;;;;;16.56;45.60;95934.50;5069460;28;20216;-61
2021/05/04 06:47:56;;;;;;;1999.90;999.90;;;;;;;16.89;46.62;95937.97;5069666;28;20193;-62
2021/05/04 06:50:23;;;;;;;1999.90;999.90;;;;;;;17.08;45.82;95930.41;5069499;28;20197;-64
2021/05/04 06:52:50;;;;;;;1999.90;999.90;;;;;;;17.12;45.13;95920.03;5070734;28;20226;-61
2021/05/04 06:55:17;;;;;;;1999.90;999.90;;;;;;;17.31;46.06;95922.13;5072951;28;20236;-61
2021/05/04 06:57:44;;;;;;;1999.90;999.90;;;;;;;17.49;44.64;95919.00;5073293;28;20283;-62
2021/05/04 07:00:12;;;;;;;1999.90;999.90;;;;;;;17.69;44.42;95920.03;5072952;28;20283;-62
2021/05/04 07:02:40;;;;;;;1999.90;999.90;;;;;;;17.73;44.75;95918.31;5072877;28;20189;-61
2021/05/04 07:05:09;;;;;;;1999.90;999.90;;;;;;;17.37;43.85;95919.00;5072830;28;20715;-61
2021/05/04 07:07:36;;;;;;;1999.90;999.90;;;;;;;17.24;44.06;95917.41;5072833;28;20663;-61
2021/05/04 07:10:04;;;;;;;1999.90;999.90;;;;;;;16.97;45.47;95918.75;5072696;28;20698;-62
2021/05/04 07:12:31;;;;;;;1999.90;999.90;;;;;;;16.99;45.11;95908.69;5072645;28;20193;-63
2021/05/04 07:14:58;;;;;;;1999.90;999.90;;;;;;;17.32;43.64;95903.44;5072516;28;20216;-60
2021/05/04 07:17:26;;;;;;;1999.90;999.90;;;;;;;17.48;43.38;95914.09;5072788;28;20234;-62
2021/05/04 07:19:55;;;;;;;1999.90;999.90;;;;;;;17.66;42.11;95906.78;5072759;28;20583;-62
2021/05/04 07:22:25;;;;;;;1999.90;999.90;;;;;;;17.76;42.58;95895.84;5072391;28;20192;-61
2021/05/04 07:24:52;;;;;;;1999.90;999.90;;;;;;;17.73;42.63;95901.75;5072427;28;20235;-64
2021/05/04 07:27:18;;;;;;;1999.90;999.90;;;;;;;17.72;43.08;95897.59;5072258;28;20583;-63
2021/05/04 07:29:45;;;;;;;1999.90;999.90;;;;;;;18.00;43.28;95891.34;5072393;28;20193;-62
2021/05/04 07:32:16;;;;;;;1999.90;999.90;;;;;;;17.85;40.99;95892.00;5072554;28;20226;-61
2021/05/04 07:34:43;;;;;;;1999.90;999.90;;;;;;;17.83;41.02;95891.53;5072374;28;20192;-62
2021/05/04 07:37:10;;;;;;;1999.90;999.90;;;;;;;18.12;42.09;95884.53;5072543;28;20206;-62
2021/05/04 07:39:38;;;;;;;1999.90;999.90;;;;;;;18.50;41.73;95895.41;5072291;28;20287;-60
2021/05/04 07:42:05;;;;;;;1999.90;999.90;;;;;;;18.52;40.36;95895.84;5072454;28;20245;-61
2021/05/04 07:44:32;;;;;;;1999.90;999.90;;;;;;;18.54;40.19;95903.44;5072136;28;20251;-62
2021/05/04 07:47:00;;;;;;;1999.90;999.90;;;;;;;18.58;40.28;95896.41;5072283;28;20201;-63
2021/05/04 07:49:33;;;;;;;1999.90;999.90;;;;;;;18.46;40.15;95892.69;5072065;28;20198;-60
2021/05/04 07:52:00;;;;;;;1999.90;999.90;;;;;;;18.67;42.44;95886.50;5072521;28;20570;-61
2021/05/04 07:54:27;;;;;;;1999.90;999.90;;;;;;;18.97;40.71;95879.03;5071847;28;20203;-62
2021/05/04 07:56:55;;;;;;;1999.90;999.90;;;;;;;19.21;39.38;95890.19;5071916;28;20291;-61
2021/05/04 07:59:22;;;;;;;1999.90;999.90;;;;;;;19.38;39.08;95889.09;5072140;28;20295;-62
2021/05/04 08:01:49;;;;;;;1999.90;999.90;;;;;;;19.41;39.77;95898.22;5071937;28;20630;-64
2021/05/04 08:04:16;;;;;;;1999.90;999.90;;;;;;;19.38;38.31;95891.00;5071134;28;20224;-63
2021/05/04 08:06:43;;;;;;;1999.90;999.90;;;;;;;19.42;38.04;95882.06;5072108;28;20196;-64
2021/05/04 08:09:11;;;;;;;1999.90;999.90;;;;;;;19.28;40.46;95881.69;5071992;28;20206;-64
2021/05/04 08:11:38;;;;;;;1999.90;999.90;;;;;;;19.65;36.64;95871.69;5072057;28;20552;-62
2021/05/04 08:14:07;;;;;;;1999.90;999.90;;;;;;;19.84;39.35;95871.00;5071597;28;20212;-62
2021/05/04 08:16:34;;;;;;;1999.90;999.90;;;;;;;20.03;36.76;95874.44;5071224;28;20232;-62
2021/05/04 08:19:01;;;;;;;1999.90;999.90;;;;;;;19.98;36.01;95858.88;5071408;28;20250;-61
2021/05/04 08:21:33;;;;;;;1999.90;999.90;;;;;;;20.05;39.44;95866.19;5071244;28;20642;-61
2021/05/04 08:24:00;;;;;;;1999.90;999.90;;;;;;;19.74;37.07;95865.13;5071349;28;20200;-62
2021/05/04 08:26:27;;;;;;;1999.90;999.90;;;;;;;19.63;37.54;95852.81;5071251;28;20203;-63
2021/05/04 08:28:54;;;;;;;1999.90;999.90;;;;;;;19.57;40.02;95848.94;5071253;28;20200;-62
2021/05/04 08:31:22;;;;;;;1999.90;999.90;;;;;;;19.87;39.95;95841.31;5071077;28;20644;-62
2021/05/04 08:33:49;;;;;;;1999.90;999.90;;;;;;;20.30;39.42;95842.97;5071085;28;20694;-64
2021/05/04 08:36:16;;;;;;;1999.90;999.90;;;;;;;20.49;38.82;95841.13;5071151;28;20196;-62
2021/05/04 08:38:42;;;;;;;1999.90;999.90;;;;;;;20.17;35.61;95842.34;5071180;28;20231;-63
2021/05/04 08:41:09;;;;;;;1999.90;999.90;;;;;;;20.43;38.01;95837.22;5071304;28;20279;-62
2021/05/04 08:43:36;;;;;;;1999.90;999.90;;;;;;;20.27;36.74;95833.88;5071135;28;20197;-62
2021/05/04 08:46:03;;;;;;;1999.90;999.90;;;;;;;20.16;40.19;95838.94;5070855;28;20230;-64
2021/05/04 08:48:31;;;;;;;1999.90;999.90;;;;;;;20.67;38.07;95830.16;5071426;28;20204;-62
2021/05/04 08:51:00;;;;;;;1999.90;999.90;;;;;;;20.85;37.50;95836.50;5070785;28;20203;-63
2021/05/04 08:53:30;;;;;;;1999.90;999.90;;;;;;;21.12;38.49;95829.44;5070902;28;20277;-63
2021/05/04 08:55:56;;;;;;;1999.90;999.90;;;;;;;21.12;38.74;95816.22;5071120;28;20200;-63
2021/05/04 08:58:24;;;;;;;1999.90;999.90;;;;;;;21.51;34.58;95816.88;5070136;28;20444;-62
2021/05/04 09:00:53;;;;;;;1999.90;999.90;;;;;;;21.70;35.38;95822.06;5070549;28;20188;-63
2021/05/04 09:03:31;;;;;;;1999.90;999.90;;;;;;;21.69;39.53;95826.59;5070584;28;20285;-65
2021/05/04 09:06:02;;;;;;;1999.90;999.90;;;;;;;21.44;35.57;95826.22;5070668;28;20220;-63
2021/05/04 09:08:35;;;;;;;1999.90;999.90;;;;;;;21.14;34.46;95833.28;5070521;28;20196;-64
2021/05/04 09:11:30;;;;;;;1999.90;999.90;;;;;;;20.98;34.50;95829.94;5070532;28;20200;-63
2021/05/04 09:14:04;;;;;;;1999.90;999.90;;;;;;;21.02;37.03;95825.50;5070727;28;20262;-62
2021/05/04 09:16:38;;;;;;;1999.90;999.90;;;;;;;20.82;40.25;95829.31;5070275;28;20224;-62
2021/05/04 09:19:19;;;;;;;1999.90;999.90;;;;;;;20.89;40.78;95811.69;5070731;28;20196;-63
2021/05/04 09:21:47;;;;;;;1999.90;999.90;;;;;;;20.90;36.96;95810.56;5070629;28;20572;-62
2021/05/04 09:24:23;;;;;;;1999.90;999.90;;;;;;;20.82;36.93;95800.97;5070069;28;20746;-62
2021/05/04 09:26:57;;;;;;;1999.90;999.90;;;;;;;21.02;34.23;95788.50;5070260;28;20193;-63
2021/05/04 09:29:31;;;;;;;1999.90;999.90;;;;;;;21.15;37.55;95781.94;5070258;28;20196;-62
2021/05/04 09:32:14;;;;;;;1999.90;999.90;;;;;;;20.82;37.75;95790.41;5070214;28;20668;-63
2021/05/04 09:34:44;;;;;;;1999.90;999.90;;;;;;;20.48;39.28;95786.00;5068918;28;20216;-64
2021/05/04 09:37:26;;;;;;;1999.90;999.90;;;;;;;20.11;39.91;95794.34;5070482;28;20197;-62
2021/05/04 09:39:54;;;;;;;1999.90;999.90;;;;;;;20.35;39.17;95788.06;5070159;28;20671;-63
2021/05/04 09:42:21;;;;;;;1999.90;999.90;;;;;;;20.61;38.92;95774.19;5070045;28;20690;-62
2021/05/04 09:44:49;;;;;;;1999.90;999.90;;;;;;;20.84;39.07;95774.97;5069825;28;20267;-63
2021/05/04 09:47:20;;;;;;;1999.90;999.90;;;;;;;21.16;37.49;95777.44;5069795;28;20192;-62
2021/05/04 09:49:48;;;;;;;1999.90;999.90;;;;;;;21.15;35.69;95766.09;5069961;28;20192;-61
2021/05/04 09:52:28;;;;;;;1999.90;999.90;;;;;;;21.23;33.79;95767.72;5069978;28;20211;-62
2021/05/04 09:55:04;;;;;;;1999.90;999.90;;;;;;;21.13;32.81;95772.78;5070039;28;20245;-63
2021/05/04 09:57:32;;;;;;;1999.90;999.90;;;;;;;21.11;32.91;95769.75;5069903;28;20624;-62
2021/05/04 09:59:59;;;;;;;1999.90;999.90;;;;;;;21.27;36.07;95767.78;5070016;28;20196;-61
2021/05/04 10:02:27;;;;;;;1999.90;999.90;;;;;;;21.44;37.44;95768.03;5070055;28;20204;-63
2021/05/04 10:04:54;;;;;;;1999.90;999.90;;;;;;;21.19;34.15;95769.53;5070021;28;20227;-62
2021/05/04 10:07:23;;;;;;;1999.90;999.90;;;;;;;21.30;36.32;95759.91;5069767;28;20279;-63
2021/05/04 10:09:51;;;;;;;1999.90;999.90;;;;;;;21.73;32.41;95753.31;5069843;28;20192;-63
2021/05/04 10:12:20;;;;;;;1999.90;999.90;;;;;;;21.97;34.53;95757.44;5070112;28;20348;-63
2021/05/04 10:14:49;;;;;;;1999.90;999.90;;;;;;;21.76;34.14;95757.16;5069742;28;20212;-62
2021/05/04 10:17:17;;;;;;;1999.90;999.90;;;;;;;21.92;36.62;95753.19;5069589;28;20303;-63
2021/05/04 10:19:44;;;;;;;1999.90;999.90;;;;;;;21.95;37.58;95754.41;5069746;28;20224;-63
2021/05/04 10:22:13;;;;;;;1999.90;999.90;;;;;;;21.56;35.83;95753.09;5069688;28;20204;-63
2021/05/04 10:24:42;;;;;;;1999.90;999.90;;;;;;;21.84;33.03;95748.19;5069858;28;20228;-63
2021/05/04 10:27:09;;;;;;;1999.90;999.90;;;;;;;21.97;32.48;95751.41;5070031;28;20437;-62
2021/05/04 10:29:37;;;;;;;1999.90;999.90;;;;;;;22.17;31.79;95742.16;5073660;28;20445;-60
2021/05/04 10:32:05;;;;;;;1999.90;999.90;;;;;;;22.44;32.40;95737.53;5073590;28;20196;-63
2021/05/04 10:34:34;;;;;;;1999.90;999.90;;;;;;;22.32;31.90;95734.00;5073426;28;20279;-62
2021/05/04 10:37:03;;;;;;;1999.90;999.90;;;;;;;22.37;31.93;95746.16;5073380;28;20192;-63
2021/05/04 10:39:39;;;;;;;1999.90;999.90;;;;;;;22.57;32.38;95744.88;5073679;28;20198;-64
2021/05/04 10:42:08;;;;;;;1999.90;999.90;;;;;;;22.73;33.18;95740.13;5073596;28;20629;-64
2021/05/04 10:45:07;;;;;;;1999.90;999.90;;;;;;;22.88;35.06;95733.06;5073393;28;20702;-61
2021/05/04 10:47:46;;;;;;;1999.90;999.90;;;;;;;23.28;33.13;95721.63;5073095;28;20193;-63
2021/05/04 10:50:14;;;;;;;1999.90;999.90;;;;;;;23.10;34.33;95723.41;5073161;28;20207;-63
2021/05/04 10:53:00;;;;;;;1999.90;999.90;;;;;;;23.27;36.01;95711.38;5073012;28;20232;-63
2021/05/04 10:56:07;;;;;;;1999.90;999.90;;;;;;;23.73;34.54;95709.78;5073218;28;20196;-63
2021/05/04 10:58:51;;;;;;;1999.90;999.90;;;;;;;23.53;33.31;95711.22;5073148;28;20279;-63